Terminal Aerodrome Forecast
Issued by NWS

Home | Current Version | Previous Version | Text Only | Print | Product List | Glossary On
Versions: 1 2 3 4 5 6 7 8 9 10 11 12 13 14 15
000
FTUS45 KSLC 210521
TAF36U
TAF
K36U 210521Z 2106/2206 19010G25KT P6SM SCT070 BKN090
     FM211800 22018G28KT P6SM SCT040 BKN060
     FM220100 24010KT P6SM VCSH SCT040 BKN050
     FM220400 22007KT P6SM -SHRA BKN040 OVC060=

USA.gov is the U.S. government's official web portal to all federal, state and local government web resources and services.